createdAt,value
2018-03-20T00:00:15.666Z,51.60
2018-03-20T00:02:42.112Z,51.70
2018-03-20T00:05:09.267Z,51.70
2018-03-20T00:07:36.437Z,52.40
2018-03-20T00:10:03.733Z,51.90
2018-03-20T00:12:30.880Z,52.00
2018-03-20T00:14:57.452Z,52.00
2018-03-20T00:17:24.591Z,52.10
2018-03-20T00:19:50.978Z,52.00
2018-03-20T00:22:18.131Z,52.30
2018-03-20T00:24:44.566Z,52.20
2018-03-20T00:27:11.735Z,52.30
2018-03-20T00:29:38.184Z,52.30
2018-03-20T00:32:04.610Z,52.40
2018-03-20T00:34:31.014Z,52.40
2018-03-20T00:36:59.057Z,52.60
2018-03-20T00:39:25.477Z,52.60
2018-03-20T00:41:51.897Z,52.70
2018-03-20T00:44:18.415Z,52.20
2018-03-20T00:46:45.687Z,52.90
2018-03-20T00:49:12.840Z,52.90
2018-03-20T00:51:39.316Z,52.90
2018-03-20T00:54:06.482Z,53.10
2018-03-20T00:56:33.670Z,53.20
2018-03-20T00:59:00.091Z,53.10
2018-03-20T01:01:26.523Z,53.20
2018-03-20T01:03:52.923Z,53.30
2018-03-20T01:06:20.098Z,53.50
2018-03-20T01:08:47.269Z,53.40
2018-03-20T01:11:14.489Z,53.50
2018-03-20T01:13:40.887Z,53.50
2018-03-20T01:16:08.036Z,53.60
2018-03-20T01:18:36.944Z,53.60
2018-03-20T01:21:04.118Z,53.70
2018-03-20T01:23:30.547Z,53.70
2018-03-20T01:25:56.964Z,53.80
2018-03-20T01:28:24.239Z,53.90
2018-03-20T01:30:51.414Z,54.50
2018-03-20T01:33:17.855Z,53.90
2018-03-20T01:35:45.024Z,54.10
2018-03-20T01:38:12.146Z,54.30
2018-03-20T01:40:38.580Z,54.10
2018-03-20T01:43:05.004Z,54.20
2018-03-20T01:45:31.580Z,54.30
2018-03-20T01:47:58.857Z,54.50
2018-03-20T01:50:26.019Z,54.50
2018-03-20T01:53:05.371Z,54.60
2018-03-20T01:55:32.508Z,54.60
2018-03-20T01:57:58.998Z,54.50
2018-03-20T02:00:26.182Z,54.70
2018-03-20T02:02:52.556Z,54.60
2018-03-20T02:05:18.966Z,54.60
2018-03-20T02:07:46.255Z,54.90
2018-03-20T02:10:13.448Z,54.90
2018-03-20T02:12:39.877Z,54.80
2018-03-20T02:15:07.027Z,55.10
2018-03-20T02:17:34.205Z,55.20
2018-03-20T02:20:01.172Z,55.10
2018-03-20T02:22:28.822Z,55.30
2018-03-20T02:24:55.214Z,55.30
2018-03-20T02:27:21.604Z,55.30
2018-03-20T02:29:48.012Z,55.40
2018-03-20T02:32:15.898Z,55.60
2018-03-20T02:34:43.070Z,55.60
2018-03-20T02:37:10.214Z,55.70
2018-03-20T02:39:36.623Z,55.70
2018-03-20T02:42:03.831Z,55.80
2018-03-20T02:44:30.264Z,55.80
2018-03-20T02:46:56.680Z,55.90
2018-03-20T02:49:24.576Z,56.00
2018-03-20T02:51:50.983Z,55.80
2018-03-20T02:54:17.517Z,55.90
2018-03-20T02:56:44.696Z,56.10
2018-03-20T02:59:11.130Z,56.00
2018-03-20T03:01:38.309Z,56.20
2018-03-20T03:04:05.452Z,56.20
2018-03-20T03:06:31.876Z,56.20
2018-03-20T03:08:58.401Z,55.70
2018-03-20T03:11:24.802Z,56.20
2018-03-20T03:13:51.204Z,56.20
2018-03-20T03:16:18.343Z,56.30
2018-03-20T03:18:44.765Z,56.30
2018-03-20T03:21:11.234Z,56.40
2018-03-20T03:23:37.646Z,56.50
2018-03-20T03:26:04.802Z,56.70
2018-03-20T03:28:31.230Z,56.70
2018-03-20T03:30:57.743Z,56.70
2018-03-20T03:33:24.662Z,56.70
2018-03-20T03:35:51.232Z,56.80
2018-03-20T03:38:19.113Z,56.80
2018-03-20T03:40:46.309Z,56.90
2018-03-20T03:43:13.469Z,56.90
2018-03-20T03:45:39.889Z,56.90
2018-03-20T03:48:07.913Z,57.00
2018-03-20T03:50:34.317Z,57.00
2018-03-20T03:53:00.724Z,57.20
2018-03-20T03:55:27.877Z,57.30
2018-03-20T03:57:54.285Z,57.30
2018-03-20T04:00:20.713Z,57.30
2018-03-20T04:02:47.127Z,57.40
2018-03-20T04:05:13.648Z,57.50
2018-03-20T04:07:40.100Z,57.40
2018-03-20T04:10:07.286Z,57.60
2018-03-20T04:12:33.714Z,57.60
2018-03-20T04:15:00.987Z,57.80
2018-03-20T04:17:27.390Z,57.70
2018-03-20T04:19:53.835Z,57.80
2018-03-20T04:22:20.239Z,57.90
2018-03-20T04:24:48.172Z,57.90
2018-03-20T04:27:14.577Z,58.00
2018-03-20T04:29:40.975Z,58.00
2018-03-20T04:32:07.412Z,57.90
2018-03-20T04:34:34.560Z,58.10
2018-03-20T04:37:00.979Z,58.00
2018-03-20T04:39:27.405Z,58.10
2018-03-20T04:41:54.543Z,58.20
2018-03-20T04:44:20.914Z,58.20
2018-03-20T04:46:47.389Z,58.20
2018-03-20T04:49:14.533Z,58.20
2018-03-20T04:51:40.959Z,58.20
2018-03-20T04:54:07.400Z,58.30
2018-03-20T04:56:33.804Z,58.30
2018-03-20T04:59:00.228Z,58.40
2018-03-20T05:01:26.637Z,58.40
2018-03-20T05:03:53.818Z,58.40
2018-03-20T05:06:20.983Z,58.40
2018-03-20T05:08:47.399Z,58.40
2018-03-20T05:11:18.201Z,58.50
2018-03-20T05:13:44.645Z,58.50
2018-03-20T05:16:11.920Z,58.50
2018-03-20T05:18:39.962Z,58.60
2018-03-20T05:21:10.296Z,58.60
2018-03-20T05:23:39.585Z,58.60
2018-03-20T05:26:06.059Z,58.70
2018-03-20T05:28:32.598Z,59.30
2018-03-20T05:30:59.051Z,58.80
2018-03-20T05:33:25.533Z,58.80
2018-03-20T05:35:52.020Z,58.80
2018-03-20T05:38:18.541Z,58.70
2018-03-20T05:40:45.018Z,58.70
2018-03-20T05:43:12.182Z,58.80
2018-03-20T05:45:38.660Z,58.90
2018-03-20T05:48:11.071Z,59.00
2018-03-20T05:50:53.295Z,58.90
2018-03-20T05:53:20.502Z,59.00
2018-03-20T05:55:47.027Z,59.00
2018-03-20T05:58:14.173Z,61.30
2018-03-20T06:00:40.568Z,61.30
2018-03-20T06:03:06.968Z,61.00
2018-03-20T06:05:34.052Z,59.70
2018-03-20T06:08:00.487Z,59.10
2018-03-20T06:10:26.942Z,58.90
2018-03-20T06:12:53.385Z,58.70
2018-03-20T06:15:19.782Z,58.60
2018-03-20T06:17:46.207Z,58.60
2018-03-20T06:20:12.695Z,58.70
2018-03-20T06:22:39.129Z,58.70
2018-03-20T06:25:05.596Z,58.60
2018-03-20T06:27:32.906Z,58.70
2018-03-20T06:30:00.097Z,60.40
2018-03-20T06:32:26.645Z,60.40
2018-03-20T06:34:53.151Z,67.50
2018-03-20T06:37:19.577Z,73.90
2018-03-20T06:39:46.018Z,71.90
2018-03-20T06:42:12.418Z,67.20
2018-03-20T06:44:38.836Z,58.60
2018-03-20T06:47:05.248Z,54.50
2018-03-20T06:49:31.644Z,50.60
2018-03-20T06:51:58.070Z,47.20
2018-03-20T06:54:25.263Z,42.30
2018-03-20T06:56:51.695Z,42.30
2018-03-20T06:59:18.109Z,39.40
2018-03-20T07:01:44.641Z,37.80
2018-03-20T07:04:11.030Z,35.60
2018-03-20T07:06:37.456Z,35.40
2018-03-20T07:09:04.091Z,34.50
2018-03-20T07:11:30.650Z,31.70
2018-03-20T07:13:57.053Z,31.40
2018-03-20T07:16:23.481Z,29.60
2018-03-20T07:18:50.020Z,29.30
2018-03-20T07:21:17.196Z,27.40
2018-03-20T07:23:43.747Z,27.30
2018-03-20T07:26:11.021Z,26.50
2018-03-20T07:28:37.440Z,26.40
2018-03-20T07:31:04.580Z,25.50
2018-03-20T07:33:31.106Z,25.50
2018-03-20T07:35:58.277Z,25.50
2018-03-20T07:38:25.432Z,24.70
2018-03-20T07:40:51.863Z,24.70
2018-03-20T07:43:18.291Z,24.10
2018-03-20T07:45:44.682Z,23.70
2018-03-20T07:48:11.105Z,23.10
2018-03-20T07:50:38.116Z,23.70
2018-03-20T07:53:05.252Z,22.90
2018-03-20T07:55:31.695Z,22.90
2018-03-20T07:57:58.167Z,22.90
2018-03-20T08:00:24.584Z,22.50
2018-03-20T08:02:51.724Z,21.20
2018-03-20T08:05:18.195Z,21.30
2018-03-20T08:07:45.483Z,20.60
2018-03-20T08:10:12.654Z,19.70
2018-03-20T08:12:39.846Z,18.70
2018-03-20T08:15:06.265Z,18.70
2018-03-20T08:17:32.739Z,18.80
2018-03-20T08:20:00.526Z,20.80
2018-03-20T08:22:26.951Z,20.70
2018-03-20T08:24:53.387Z,21.60
2018-03-20T08:27:20.415Z,21.70
2018-03-20T08:29:46.858Z,21.00
2018-03-20T08:32:13.298Z,20.20
2018-03-20T08:34:40.441Z,20.40
2018-03-20T08:37:06.840Z,20.30
2018-03-20T08:39:33.994Z,21.50
2018-03-20T08:42:01.147Z,21.90
2018-03-20T08:44:27.557Z,21.90
2018-03-20T08:46:53.953Z,22.20
2018-03-20T08:49:20.455Z,21.70
2018-03-20T08:51:46.916Z,21.70
2018-03-20T08:54:13.354Z,21.00
2018-03-20T08:56:40.567Z,20.20
2018-03-20T08:59:07.098Z,20.10
2018-03-20T09:01:34.285Z,20.50
2018-03-20T09:04:00.737Z,20.50
2018-03-20T09:06:27.874Z,21.30
2018-03-20T09:08:56.161Z,21.80
2018-03-20T09:11:22.652Z,21.70
2018-03-20T09:13:49.797Z,22.80
2018-03-20T09:16:16.270Z,22.80
2018-03-20T09:18:43.464Z,23.40
2018-03-20T09:21:09.862Z,23.40
2018-03-20T09:23:36.320Z,24.00
2018-03-20T09:26:02.825Z,24.40
2018-03-20T09:28:30.007Z,25.00
2018-03-20T09:30:56.399Z,25.00
2018-03-20T09:33:22.869Z,25.30
2018-03-20T09:35:49.464Z,25.70
2018-03-20T09:38:16.576Z,26.30
2018-03-20T09:40:43.004Z,26.20
2018-03-20T09:43:09.430Z,26.40
2018-03-20T09:45:36.578Z,26.80
2018-03-20T09:48:03.015Z,26.70
2018-03-20T09:50:29.439Z,27.20
2018-03-20T09:52:56.191Z,27.00
2018-03-20T09:55:23.349Z,27.30
2018-03-20T09:57:50.530Z,27.90
2018-03-20T10:00:17.683Z,27.50
2018-03-20T10:02:44.864Z,27.40
2018-03-20T10:05:11.293Z,27.50
2018-03-20T10:07:37.745Z,27.30
2018-03-20T10:10:04.152Z,27.40
2018-03-20T10:12:31.318Z,27.40
2018-03-20T10:14:58.491Z,27.00
2018-03-20T10:17:24.960Z,27.00
2018-03-20T10:19:51.396Z,26.90
2018-03-20T10:22:18.549Z,26.90
2018-03-20T10:24:44.984Z,26.80
2018-03-20T10:27:11.388Z,26.90
2018-03-20T10:29:38.577Z,26.80
2018-03-20T10:32:05.063Z,26.80
2018-03-20T10:34:31.581Z,26.90
2018-03-20T10:36:58.051Z,26.90
2018-03-20T10:39:24.500Z,27.00
2018-03-20T10:41:50.912Z,27.10
2018-03-20T10:44:17.429Z,27.20
2018-03-20T10:46:43.902Z,27.30
2018-03-20T10:49:10.339Z,27.50
2018-03-20T10:51:36.741Z,27.50
2018-03-20T10:54:04.146Z,27.90
2018-03-20T10:56:31.419Z,28.20
2018-03-20T10:58:58.585Z,28.50
2018-03-20T11:01:31.291Z,28.50
2018-03-20T11:03:57.778Z,28.70
2018-03-20T11:06:24.214Z,28.70
2018-03-20T11:08:50.746Z,28.80
2018-03-20T11:11:18.452Z,29.00
2018-03-20T11:13:44.898Z,29.00
2018-03-20T11:16:12.171Z,29.10
2018-03-20T11:18:39.974Z,29.30
2018-03-20T11:21:06.455Z,29.30
2018-03-20T11:23:32.907Z,29.30
2018-03-20T11:25:59.320Z,29.50
2018-03-20T11:28:26.486Z,29.60
2018-03-20T11:30:53.672Z,29.70
2018-03-20T11:33:21.372Z,29.90
2018-03-20T11:35:48.040Z,29.90
2018-03-20T11:38:14.480Z,30.00
2018-03-20T11:40:40.896Z,30.40
2018-03-20T11:43:07.793Z,31.00
2018-03-20T11:45:34.257Z,31.40
2018-03-20T11:48:00.809Z,31.90
2018-03-20T11:50:28.388Z,33.00
2018-03-20T11:52:54.848Z,32.90
2018-03-20T11:55:22.018Z,33.80
2018-03-20T11:57:49.166Z,34.10
2018-03-20T12:00:15.633Z,34.10
2018-03-20T12:02:42.796Z,34.80
2018-03-20T12:05:09.249Z,34.80
2018-03-20T12:07:42.565Z,35.80
2018-03-20T12:10:09.702Z,35.70
2018-03-20T12:12:36.153Z,35.70
2018-03-20T12:15:02.674Z,35.70
2018-03-20T12:17:29.100Z,35.80
2018-03-20T12:19:55.538Z,35.80
2018-03-20T12:22:22.001Z,36.00
2018-03-20T12:24:48.558Z,36.10
2018-03-20T12:27:14.977Z,36.30
2018-03-20T12:29:41.465Z,36.70
2018-03-20T12:32:07.963Z,36.40
2018-03-20T12:34:35.760Z,36.60
2018-03-20T12:37:02.308Z,36.60
2018-03-20T12:39:29.452Z,36.70
2018-03-20T12:41:55.880Z,36.70
2018-03-20T12:44:22.327Z,36.70
2018-03-20T12:46:48.738Z,36.60
2018-03-20T12:49:15.189Z,36.70
2018-03-20T12:51:42.353Z,37.20
2018-03-20T12:54:08.973Z,37.10
2018-03-20T12:56:35.383Z,37.90
2018-03-20T12:59:02.765Z,37.70
2018-03-20T13:01:29.979Z,38.10
2018-03-20T13:03:56.412Z,38.10
2018-03-20T13:06:22.856Z,38.30
2018-03-20T13:08:49.282Z,38.70
2018-03-20T13:11:15.704Z,39.20
2018-03-20T13:13:42.105Z,39.60
2018-03-20T13:16:09.391Z,40.70
2018-03-20T13:18:36.553Z,41.20
2018-03-20T13:21:03.952Z,41.90
2018-03-20T13:23:30.890Z,41.80
2018-03-20T13:25:58.061Z,42.80
2018-03-20T13:28:24.637Z,43.30
2018-03-20T13:30:51.807Z,43.10
2018-03-20T13:33:18.976Z,43.60
2018-03-20T13:35:46.123Z,44.00
2018-03-20T13:38:12.580Z,44.00
2018-03-20T13:40:39.100Z,44.40
2018-03-20T13:43:05.756Z,44.80
2018-03-20T13:45:32.494Z,45.10
2018-03-20T13:47:59.664Z,45.50
2018-03-20T13:50:26.867Z,49.90
2018-03-20T13:52:53.278Z,49.90
2018-03-20T13:55:20.509Z,49.10
2018-03-20T13:57:46.978Z,49.10
2018-03-20T14:00:13.467Z,48.90
2018-03-20T14:02:40.651Z,49.40
2018-03-20T14:05:07.926Z,49.80
2018-03-20T14:07:35.111Z,50.30
2018-03-20T14:10:01.657Z,50.30
2018-03-20T14:12:28.624Z,50.50
2018-03-20T14:14:55.091Z,50.70
2018-03-20T14:17:21.743Z,51.00
2018-03-20T14:19:48.898Z,52.00
2018-03-20T14:22:16.187Z,52.30
2018-03-20T14:24:43.353Z,56.30
2018-03-20T14:27:10.517Z,59.40
2018-03-20T14:29:37.686Z,58.80
2018-03-20T14:32:05.054Z,58.40
2018-03-20T14:34:31.649Z,58.40
2018-03-20T14:36:58.103Z,58.20
2018-03-20T14:39:24.862Z,58.10
2018-03-20T14:41:51.296Z,58.20
2018-03-20T14:44:18.526Z,58.60
2018-03-20T14:46:44.933Z,58.50
2018-03-20T14:49:12.116Z,59.10
2018-03-20T14:51:39.314Z,59.20
2018-03-20T14:54:05.735Z,59.20
2018-03-20T14:56:32.235Z,59.30
2018-03-20T14:58:58.758Z,59.50
2018-03-20T15:01:25.204Z,59.70
2018-03-20T15:03:52.384Z,60.50
2018-03-20T15:06:20.207Z,60.80
2018-03-20T15:08:46.652Z,60.80
2018-03-20T15:11:14.909Z,60.90
2018-03-20T15:13:42.510Z,65.50
2018-03-20T15:16:10.640Z,65.40
2018-03-20T15:18:37.673Z,64.90
2018-03-20T15:21:04.178Z,64.90
2018-03-20T15:23:30.643Z,64.80
2018-03-20T15:25:57.120Z,64.90
2018-03-20T15:28:23.549Z,65.20
2018-03-20T15:30:50.012Z,65.60
2018-03-20T15:33:16.459Z,66.00
2018-03-20T15:35:42.936Z,66.30
2018-03-20T15:38:09.364Z,66.60
2018-03-20T15:40:35.816Z,66.80
2018-03-20T15:43:02.247Z,66.90
2018-03-20T15:45:28.655Z,66.90
2018-03-20T15:47:55.109Z,67.10
2018-03-20T15:50:22.314Z,71.80
2018-03-20T15:52:49.547Z,74.50
2018-03-20T15:55:15.987Z,74.40
2018-03-20T15:57:43.190Z,77.50
2018-03-20T16:00:09.778Z,77.50
2018-03-20T16:02:36.277Z,76.00
2018-03-20T16:05:02.772Z,75.10
2018-03-20T16:07:29.944Z,74.20
2018-03-20T16:09:57.097Z,77.50
2018-03-20T16:12:27.073Z,77.50
2018-03-20T16:14:54.215Z,75.90
2018-03-20T16:17:20.657Z,75.90
2018-03-20T16:19:47.083Z,75.40
2018-03-20T16:22:13.509Z,75.30
2018-03-20T16:24:40.934Z,75.00
2018-03-20T16:27:07.339Z,74.90
2018-03-20T16:29:34.585Z,75.00
2018-03-20T16:32:01.046Z,75.00
2018-03-20T16:34:28.211Z,75.50
2018-03-20T16:36:54.704Z,75.50
2018-03-20T16:39:21.853Z,75.70
2018-03-20T16:41:49.022Z,75.80
2018-03-20T16:44:15.456Z,75.70
2018-03-20T16:46:41.837Z,76.10
2018-03-20T16:49:08.237Z,76.20
2018-03-20T16:51:34.637Z,76.30
2018-03-20T16:54:01.077Z,76.40
2018-03-20T16:56:27.644Z,76.70
2018-03-20T16:58:54.853Z,77.60
2018-03-20T17:01:22.030Z,77.90
2018-03-20T17:03:49.200Z,78.20
2018-03-20T17:06:16.381Z,78.60
2018-03-20T17:08:42.841Z,78.60
2018-03-20T17:11:09.295Z,79.10
2018-03-20T17:13:35.707Z,79.20
2018-03-20T17:16:02.179Z,79.50
2018-03-20T17:18:29.386Z,79.70
2018-03-20T17:20:55.869Z,79.60
2018-03-20T17:23:22.617Z,79.70
2018-03-20T17:25:49.452Z,80.00
2018-03-20T17:28:16.727Z,80.60
2018-03-20T17:30:44.041Z,80.80
2018-03-20T17:33:10.608Z,80.70
2018-03-20T17:35:37.101Z,84.80
2018-03-20T17:38:04.393Z,84.00
2018-03-20T17:40:31.576Z,83.50
2018-03-20T17:42:58.532Z,83.50
2018-03-20T17:45:25.013Z,86.70
2018-03-20T17:47:51.992Z,88.80
2018-03-20T17:50:18.397Z,87.80
2018-03-20T17:52:44.805Z,87.00
2018-03-20T17:55:11.267Z,86.40
2018-03-20T17:57:38.418Z,85.90
2018-03-20T18:00:06.794Z,85.60
2018-03-20T18:02:34.891Z,85.50
2018-03-20T18:05:02.464Z,85.30
2018-03-20T18:07:28.866Z,85.20
2018-03-20T18:09:55.485Z,85.20
2018-03-20T18:12:24.442Z,84.90
2018-03-20T18:14:51.157Z,84.90
2018-03-20T18:17:18.739Z,85.20
2018-03-20T18:19:45.399Z,85.20
2018-03-20T18:22:13.534Z,85.30
2018-03-20T18:24:39.981Z,85.20
2018-03-20T18:27:06.445Z,85.40
2018-03-20T18:29:32.892Z,85.80
2018-03-20T18:31:59.350Z,86.00
2018-03-20T18:34:25.792Z,85.90
2018-03-20T18:36:52.234Z,89.50
2018-03-20T18:39:19.412Z,90.40
2018-03-20T18:41:46.071Z,90.40
2018-03-20T18:44:13.175Z,90.00
2018-03-20T18:46:40.258Z,89.80
2018-03-20T18:49:07.590Z,88.90
2018-03-20T18:51:34.445Z,88.90
2018-03-20T18:54:01.731Z,88.60
2018-03-20T18:56:28.177Z,88.50
2018-03-20T18:58:55.555Z,88.30
2018-03-20T19:01:21.978Z,88.30
2018-03-20T19:03:48.791Z,88.30
2018-03-20T19:06:15.432Z,88.30
2018-03-20T19:08:42.707Z,88.20
2018-03-20T19:11:10.647Z,88.20
2018-03-20T19:13:37.157Z,88.20
2018-03-20T19:16:03.710Z,88.30
2018-03-20T19:18:30.380Z,88.30
2018-03-20T19:21:01.401Z,88.40
2018-03-20T19:23:28.651Z,88.50
2018-03-20T19:25:55.732Z,88.50
2018-03-20T19:28:22.144Z,88.40
2018-03-20T19:30:48.628Z,88.50
2018-03-20T19:33:15.044Z,88.60
2018-03-20T19:35:42.316Z,88.80
2018-03-20T19:38:08.796Z,88.80
2018-03-20T19:40:35.263Z,88.90
2018-03-20T19:43:01.723Z,89.20
2018-03-20T19:45:28.213Z,89.40
2018-03-20T19:47:54.711Z,89.60
2018-03-20T19:50:21.265Z,89.80
2018-03-20T19:52:47.852Z,90.00
2018-03-20T19:55:14.329Z,90.10
2018-03-20T19:57:40.790Z,90.00
2018-03-20T20:00:08.122Z,90.30
2018-03-20T20:02:34.531Z,90.30
2018-03-20T20:05:00.977Z,90.30
2018-03-20T20:07:27.421Z,90.40
2018-03-20T20:09:53.877Z,90.50
2018-03-20T20:12:20.595Z,90.60
2018-03-20T20:14:47.867Z,90.50
2018-03-20T20:17:15.560Z,90.60
2018-03-20T20:19:42.042Z,90.60
2018-03-20T20:22:08.566Z,90.60
2018-03-20T20:24:35.029Z,90.80
2018-03-20T20:27:01.523Z,90.80
2018-03-20T20:29:27.985Z,90.90
2018-03-20T20:31:55.720Z,90.90
2018-03-20T20:34:22.277Z,90.90
2018-03-20T20:36:49.459Z,91.10
2018-03-20T20:39:15.891Z,91.10
2018-03-20T20:41:43.098Z,91.30
2018-03-20T20:44:09.513Z,91.30
2018-03-20T20:46:35.991Z,91.30
2018-03-20T20:49:02.525Z,91.10
2018-03-20T20:51:28.950Z,91.10
2018-03-20T20:53:55.407Z,91.50
2018-03-20T20:56:22.651Z,91.00
2018-03-20T20:58:49.100Z,90.90
2018-03-20T21:01:15.599Z,90.90
2018-03-20T21:03:43.000Z,90.90
2018-03-20T21:06:09.491Z,90.90
2018-03-20T21:08:35.943Z,90.80
2018-03-20T21:11:02.405Z,90.80
2018-03-20T21:13:28.955Z,90.90
2018-03-20T21:15:55.614Z,90.90
2018-03-20T21:18:22.276Z,90.90
2018-03-20T21:20:49.450Z,90.90
2018-03-20T21:23:16.764Z,90.90
2018-03-20T21:25:43.214Z,91.00
2018-03-20T21:28:09.645Z,90.90
2018-03-20T21:30:36.132Z,90.90
2018-03-20T21:33:03.064Z,90.90
2018-03-20T21:35:29.586Z,90.90
2018-03-20T21:37:56.083Z,90.90
2018-03-20T21:40:22.733Z,90.80
2018-03-20T21:42:50.590Z,90.80
2018-03-20T21:45:17.004Z,90.80
2018-03-20T21:47:43.776Z,90.90
2018-03-20T21:50:11.728Z,90.80
2018-03-20T21:52:38.697Z,90.90
2018-03-20T21:55:06.074Z,90.90
2018-03-20T21:57:32.630Z,90.90
2018-03-20T21:59:59.856Z,90.80
2018-03-20T22:02:26.363Z,90.80
2018-03-20T22:04:53.636Z,90.70
2018-03-20T22:07:20.915Z,90.70
2018-03-20T22:09:47.352Z,90.70
2018-03-20T22:12:14.574Z,91.80
2018-03-20T22:14:40.971Z,91.40
2018-03-20T22:17:07.413Z,91.30
2018-03-20T22:19:33.895Z,91.10
2018-03-20T22:22:01.067Z,90.80
2018-03-20T22:24:28.296Z,90.70
2018-03-20T22:26:56.156Z,90.60
2018-03-20T22:29:22.594Z,90.60
2018-03-20T22:31:49.806Z,90.50
2018-03-20T22:34:16.246Z,90.50
2018-03-20T22:36:42.737Z,90.50
2018-03-20T22:39:09.139Z,90.50
2018-03-20T22:41:36.350Z,90.50
2018-03-20T22:44:02.853Z,90.50
2018-03-20T22:46:30.042Z,90.40
2018-03-20T22:48:56.527Z,90.40
2018-03-20T22:51:22.967Z,90.40
2018-03-20T22:53:49.513Z,90.40
2018-03-20T22:56:16.068Z,90.30
2018-03-20T22:58:43.253Z,90.30
2018-03-20T23:01:09.763Z,90.30
2018-03-20T23:03:36.259Z,90.30
2018-03-20T23:06:03.424Z,90.30
2018-03-20T23:08:30.611Z,90.30
2018-03-20T23:10:57.057Z,90.30
2018-03-20T23:13:24.234Z,90.20
2018-03-20T23:15:50.686Z,90.20
2018-03-20T23:18:17.166Z,90.20
2018-03-20T23:20:43.703Z,90.70
2018-03-20T23:23:10.923Z,90.50
2018-03-20T23:25:37.413Z,90.50
2018-03-20T23:28:04.614Z,90.40
2018-03-20T23:30:31.149Z,90.40
2018-03-20T23:32:58.380Z,90.30
2018-03-20T23:35:24.835Z,90.30
2018-03-20T23:37:51.267Z,90.30
2018-03-20T23:40:17.679Z,90.20
2018-03-20T23:42:45.635Z,90.20
2018-03-20T23:45:12.043Z,90.20
2018-03-20T23:47:39.704Z,90.10
2018-03-20T23:50:06.296Z,90.10
2018-03-20T23:52:32.850Z,90.20
2018-03-20T23:54:59.296Z,90.20
2018-03-20T23:57:26.456Z,90.20
2018-03-20T23:59:52.876Z,90.10
